createdAt,value
2023-11-16T00:04:18.962Z,18.4
2023-11-16T00:09:19.766Z,18.4
2023-11-16T00:14:20.545Z,18.4
2023-11-16T00:19:21.324Z,18.4
2023-11-16T00:24:22.097Z,18.4
2023-11-16T00:29:22.751Z,18.4
2023-11-16T00:34:23.541Z,18.4
2023-11-16T00:39:24.388Z,18.3
2023-11-16T00:44:25.164Z,18.3
2023-11-16T00:49:25.942Z,18.4
2023-11-16T00:54:26.584Z,18.4
2023-11-16T00:59:27.298Z,18.4
2023-11-16T01:04:28.059Z,18.4
2023-11-16T01:09:29.002Z,18.3
2023-11-16T01:14:29.736Z,18.4
2023-11-16T01:19:30.390Z,18.3
2023-11-16T01:24:31.231Z,18.3
2023-11-16T01:29:32.005Z,18.3
2023-11-16T01:34:32.762Z,18.3
2023-11-16T01:39:33.379Z,18.3
2023-11-16T01:44:34.172Z,18.3
2023-11-16T01:49:34.936Z,18.3
2023-11-16T01:54:35.738Z,18.3
2023-11-16T01:59:36.908Z,18.3
2023-11-16T02:04:37.688Z,18.3
2023-11-16T02:09:38.575Z,18.3
2023-11-16T02:14:39.379Z,18.3
2023-11-16T02:19:40.186Z,18.3
2023-11-16T02:24:40.953Z,18.3
2023-11-16T02:29:41.740Z,18.3
2023-11-16T02:34:42.494Z,18.3
2023-11-16T02:39:43.276Z,18.3
2023-11-16T02:44:44.075Z,18.3
2023-11-16T02:49:44.833Z,18.3
2023-11-16T02:54:45.611Z,18.4
2023-11-16T02:59:46.421Z,18.3
2023-11-16T03:04:47.182Z,18.3
2023-11-16T03:09:48.028Z,18.3
2023-11-16T03:14:48.647Z,18.3
2023-11-16T03:19:49.427Z,18.3
2023-11-16T03:24:50.178Z,18.3
2023-11-16T03:29:57.966Z,18.3
2023-11-16T03:35:00.557Z,18.3
2023-11-16T03:40:01.323Z,18.3
2023-11-16T03:45:01.955Z,18.3
2023-11-16T03:50:02.735Z,18.2
2023-11-16T03:55:03.481Z,18.3
2023-11-16T04:00:04.273Z,18.3
2023-11-16T04:05:05.039Z,18.3
2023-11-16T04:10:05.869Z,18.3
2023-11-16T04:15:06.671Z,18.2
2023-11-16T04:20:07.528Z,18.3
2023-11-16T04:25:08.345Z,18.3
2023-11-16T04:30:09.172Z,18.2
2023-11-16T04:35:09.968Z,18.3
2023-11-16T04:40:10.751Z,18.2
2023-11-16T04:45:11.576Z,18.2
2023-11-16T04:50:12.344Z,18.3
2023-11-16T04:55:13.947Z,18.3
2023-11-16T05:00:15.303Z,18.3
2023-11-16T05:05:16.230Z,18.3
2023-11-16T05:10:16.994Z,18.3
2023-11-16T05:15:18.058Z,18.2
2023-11-16T05:20:18.929Z,18.2
2023-11-16T05:25:19.559Z,18.3
2023-11-16T05:30:20.336Z,18.2
2023-11-16T05:35:21.123Z,18.2
2023-11-16T05:40:21.908Z,18.2
2023-11-16T05:45:22.785Z,18.2
2023-11-16T05:50:23.428Z,18.2
2023-11-16T05:55:24.184Z,18.2
2023-11-16T06:00:25.037Z,18.2
2023-11-16T06:05:25.910Z,18.2
2023-11-16T06:10:28.251Z,18.2
2023-11-16T06:15:29.760Z,18.2
2023-11-16T06:20:31.112Z,18.2
2023-11-16T06:25:31.856Z,18.2
2023-11-16T06:30:32.622Z,18.2
2023-11-16T06:35:33.414Z,18.2
2023-11-16T06:40:34.030Z,18.1
2023-11-16T06:45:34.854Z,18.2
2023-11-16T06:50:35.636Z,18.2
2023-11-16T06:55:36.386Z,18.2
2023-11-16T07:00:37.171Z,18.2
2023-11-16T07:05:37.936Z,18.2
2023-11-16T07:10:38.585Z,18.2
2023-11-16T07:15:39.354Z,18.2
2023-11-16T07:20:40.139Z,18.2
2023-11-16T07:25:40.898Z,18.1
2023-11-16T07:30:41.591Z,18.2
2023-11-16T07:35:42.381Z,18.2
2023-11-16T07:40:43.068Z,18.1
2023-11-16T07:45:43.873Z,18.1
2023-11-16T07:50:44.629Z,18.2
2023-11-16T07:55:45.385Z,18.1
2023-11-16T08:00:46.258Z,18.1
2023-11-16T08:05:46.955Z,18.2
2023-11-16T08:10:47.716Z,18.1
2023-11-16T08:15:48.553Z,18.2
2023-11-16T08:20:49.262Z,18.2
2023-11-16T08:25:50.098Z,18.1
2023-11-16T08:30:50.872Z,18.1
2023-11-16T08:35:51.715Z,18.1
2023-11-16T08:40:52.542Z,18.1
2023-11-16T08:45:53.371Z,18.1
2023-11-16T08:50:54.165Z,18.1
2023-11-16T08:55:54.965Z,18.1
2023-11-16T09:00:55.761Z,18.1
2023-11-16T09:05:56.577Z,18.1
2023-11-16T09:10:57.340Z,18.1
2023-11-16T09:15:58.290Z,18.1
2023-11-16T09:20:59.096Z,18.1
2023-11-16T09:25:59.868Z,18.1
2023-11-16T09:31:00.687Z,18.1
2023-11-16T09:36:02.539Z,18.1
2023-11-16T09:41:04.021Z,18.1
2023-11-16T09:46:04.878Z,18.1
2023-11-16T09:51:05.674Z,18.1
2023-11-16T09:56:06.425Z,18.1
2023-11-16T10:01:07.318Z,18.1
2023-11-16T10:06:08.092Z,18.1
2023-11-16T10:11:08.861Z,18.1
2023-11-16T10:16:09.762Z,18.1
2023-11-16T10:21:10.570Z,18.1
2023-11-16T10:26:11.341Z,18.1
2023-11-16T10:31:12.224Z,18.1
2023-11-16T10:36:13.028Z,18.1
2023-11-16T10:41:13.657Z,18.1
2023-11-16T10:46:14.575Z,18.1
2023-11-16T10:51:15.441Z,18.1
2023-11-16T10:56:16.195Z,18.1
2023-11-16T11:01:17.723Z,18
2023-11-16T11:06:18.713Z,18
2023-11-16T11:11:19.491Z,18
2023-11-16T11:16:20.305Z,18.1
2023-11-16T11:21:21.126Z,18.1
2023-11-16T11:26:21.917Z,18
2023-11-16T11:31:22.776Z,18
2023-11-16T11:36:23.623Z,18.1
2023-11-16T11:41:24.421Z,18
2023-11-16T11:46:25.243Z,18
2023-11-16T11:51:26.033Z,18.1
2023-11-16T11:56:26.804Z,18.1
2023-11-16T12:01:27.586Z,18.1
2023-11-16T12:06:28.369Z,18.1
2023-11-16T12:11:29.146Z,18.1
2023-11-16T12:16:30.026Z,18
2023-11-16T12:21:30.839Z,18
2023-11-16T12:26:31.599Z,18
2023-11-16T12:31:32.283Z,18
2023-11-16T12:36:33.267Z,18
2023-11-16T12:41:34.053Z,18
2023-11-16T12:46:34.945Z,18
2023-11-16T12:51:35.881Z,18
2023-11-16T12:56:36.696Z,18
2023-11-16T13:01:37.489Z,18
2023-11-16T13:06:38.325Z,18
2023-11-16T13:11:39.110Z,18
2023-11-16T13:16:40.493Z,18
2023-11-16T13:21:41.490Z,18
2023-11-16T13:26:42.286Z,18.1
2023-11-16T13:31:43.242Z,18
2023-11-16T13:36:44.033Z,18
2023-11-16T13:41:44.793Z,18
2023-11-16T13:46:45.451Z,18.1
2023-11-16T13:51:46.293Z,18
2023-11-16T13:56:46.952Z,18
2023-11-16T14:01:47.731Z,18.1
2023-11-16T14:06:48.592Z,18
2023-11-16T14:11:49.358Z,18.1
2023-11-16T14:16:50.013Z,18
2023-11-16T14:21:51.003Z,18
2023-11-16T14:26:51.651Z,18
2023-11-16T14:31:52.298Z,18
2023-11-16T14:36:53.096Z,17.9
2023-11-16T14:41:53.893Z,17.9
2023-11-16T14:46:54.672Z,18
2023-11-16T14:51:55.508Z,18
2023-11-16T14:56:56.146Z,18
2023-11-16T15:01:56.994Z,18
2023-11-16T15:06:57.812Z,18
2023-11-16T15:11:58.763Z,18
2023-11-16T15:16:59.246Z,18.1
2023-11-16T15:22:00.118Z,18
2023-11-16T15:27:00.897Z,18.1
2023-11-16T15:32:01.703Z,18
2023-11-16T15:37:02.614Z,18
2023-11-16T15:42:03.441Z,18
2023-11-16T15:47:04.215Z,18
2023-11-16T15:52:05.035Z,18
2023-11-16T15:57:05.701Z,18
2023-11-16T16:02:06.698Z,18
2023-11-16T16:07:07.578Z,18
2023-11-16T16:12:08.223Z,18
2023-11-16T16:17:09.134Z,18
2023-11-16T16:22:09.883Z,17.9
2023-11-16T16:27:10.571Z,17.9
2023-11-16T16:32:11.457Z,17.9
2023-11-16T16:37:12.306Z,17.9
2023-11-16T16:42:13.087Z,17.9
2023-11-16T16:47:13.900Z,18
2023-11-16T16:52:14.721Z,17.9
2023-11-16T16:57:15.504Z,17.9
2023-11-16T17:02:16.297Z,17.9
2023-11-16T17:07:17.057Z,17.9
2023-11-16T17:12:17.710Z,18
2023-11-16T17:17:18.524Z,18
2023-11-16T17:22:19.321Z,17.9
2023-11-16T17:27:20.081Z,17.9
2023-11-16T17:32:20.736Z,18
2023-11-16T17:37:21.511Z,17.9
2023-11-16T17:42:22.271Z,17.9
2023-11-16T17:47:23.037Z,17.9
2023-11-16T17:52:23.824Z,17.9
2023-11-16T17:57:24.660Z,17.9
2023-11-16T18:02:25.418Z,18
2023-11-16T18:07:26.178Z,17.9
2023-11-16T18:12:26.971Z,17.9
2023-11-16T18:17:27.726Z,17.9
2023-11-16T18:22:28.490Z,17.9
2023-11-16T18:27:29.372Z,17.9
2023-11-16T18:32:31.370Z,17.9
2023-11-16T18:37:33.129Z,18
2023-11-16T18:42:33.928Z,17.9
2023-11-16T18:47:34.739Z,17.9
2023-11-16T18:52:35.521Z,17.9
2023-11-16T18:57:37.179Z,17.8
2023-11-16T19:02:38.556Z,17.9
2023-11-16T19:07:39.167Z,17.9
2023-11-16T19:12:39.965Z,17.8
2023-11-16T19:17:40.821Z,17.9
2023-11-16T19:22:41.476Z,17.8
2023-11-16T19:27:42.353Z,17.9
2023-11-16T19:32:43.237Z,17.9
2023-11-16T19:37:44.008Z,17.8
2023-11-16T19:47:45.516Z,17.9
2023-11-16T20:17:49.671Z,17.9
2023-11-16T21:12:57.114Z,17.8
2023-11-16T21:43:01.407Z,17.9
2023-11-16T23:38:17.129Z,17.7
